createdAt,value
2023-12-15T00:00:06.401Z,0.15
2023-12-15T00:02:36.080Z,0.15
2023-12-15T00:05:05.649Z,0.14
2023-12-15T00:07:34.435Z,0.11
2023-12-15T00:10:03.389Z,0.10
2023-12-15T00:12:32.074Z,0.08
2023-12-15T00:15:00.657Z,0.05
2023-12-15T00:17:29.036Z,0.05
2023-12-15T00:19:57.581Z,0.05
2023-12-15T00:22:25.915Z,0.04
2023-12-15T00:24:54.954Z,0.05
2023-12-15T00:27:23.289Z,0.07
2023-12-15T00:29:51.704Z,0.07
2023-12-15T00:32:20.296Z,0.08
2023-12-15T00:34:49.064Z,0.07
2023-12-15T00:37:17.662Z,0.05
2023-12-15T00:39:45.933Z,0.04
2023-12-15T00:42:14.250Z,0.02
2023-12-15T00:44:42.917Z,0.00
2023-12-15T00:47:11.500Z,-0.04
2023-12-15T00:49:39.774Z,-0.05
2023-12-15T00:52:08.331Z,-0.08
2023-12-15T00:54:36.929Z,-0.11
2023-12-15T00:57:05.688Z,-0.14
2023-12-15T00:59:34.437Z,-0.15
2023-12-15T01:02:05.609Z,-0.14
2023-12-15T01:04:34.451Z,-0.12
2023-12-15T01:07:03.106Z,-0.10
2023-12-15T01:09:31.524Z,-0.08
2023-12-15T01:12:00.415Z,-0.09
2023-12-15T01:14:29.144Z,-0.09
2023-12-15T01:16:57.597Z,-0.11
2023-12-15T01:19:28.777Z,-0.13
2023-12-15T01:21:57.975Z,-0.16
2023-12-15T01:24:26.312Z,-0.19
2023-12-15T01:26:54.903Z,-0.20
2023-12-15T01:29:23.376Z,-0.22
2023-12-15T01:31:51.768Z,-0.23
2023-12-15T01:34:20.719Z,-0.24
2023-12-15T01:36:49.618Z,-0.24
2023-12-15T01:39:18.307Z,-0.24
2023-12-15T01:41:46.790Z,-0.25
2023-12-15T01:44:15.200Z,-0.26
2023-12-15T01:46:44.172Z,-0.27
2023-12-15T01:49:12.590Z,-0.28
2023-12-15T01:51:41.417Z,-0.28
2023-12-15T01:54:09.794Z,-0.28
2023-12-15T01:56:38.693Z,-0.27
2023-12-15T01:59:07.061Z,-0.27
2023-12-15T02:01:35.455Z,-0.27
2023-12-15T02:04:03.956Z,-0.26
2023-12-15T02:06:32.296Z,-0.26
2023-12-15T02:09:01.209Z,-0.26
2023-12-15T02:11:30.024Z,-0.26
2023-12-15T02:13:58.482Z,-0.25
2023-12-15T02:16:26.861Z,-0.26
2023-12-15T02:18:55.307Z,-0.26
2023-12-15T02:21:24.159Z,-0.25
2023-12-15T02:23:52.398Z,-0.26
2023-12-15T02:26:20.911Z,-0.26
2023-12-15T02:28:49.439Z,-0.26
2023-12-15T02:31:19.266Z,-0.25
2023-12-15T02:33:48.072Z,-0.26
2023-12-15T02:36:20.305Z,-0.25
2023-12-15T02:38:48.930Z,-0.25
2023-12-15T02:41:17.646Z,-0.23
2023-12-15T02:43:46.032Z,-0.22
2023-12-15T02:46:14.472Z,-0.22
2023-12-15T02:48:42.855Z,-0.21
2023-12-15T02:51:11.598Z,-0.20
2023-12-15T02:53:40.841Z,-0.18
2023-12-15T02:56:10.769Z,-0.18
2023-12-15T02:58:40.106Z,-0.18
2023-12-15T03:01:08.475Z,-0.17
2023-12-15T03:03:37.332Z,-0.17
2023-12-15T03:06:06.890Z,-0.17
2023-12-15T03:08:35.330Z,-0.16
2023-12-15T03:11:03.994Z,-0.16
2023-12-15T03:13:32.652Z,-0.16
2023-12-15T03:16:06.569Z,-0.17
2023-12-15T03:18:34.983Z,-0.19
2023-12-15T03:21:03.571Z,-0.20
2023-12-15T03:23:32.473Z,-0.20
2023-12-15T03:26:01.031Z,-0.21
2023-12-15T03:28:31.926Z,-0.22
2023-12-15T03:31:02.913Z,-0.23
2023-12-15T03:33:37.231Z,-0.24
2023-12-15T03:36:08.277Z,-0.25
2023-12-15T03:38:36.763Z,-0.27
2023-12-15T03:41:07.153Z,-0.28
2023-12-15T03:43:36.139Z,-0.29
2023-12-15T03:46:05.729Z,-0.29
2023-12-15T03:48:34.203Z,-0.30
2023-12-15T03:51:03.060Z,-0.31
2023-12-15T03:53:31.946Z,-0.31
2023-12-15T03:56:00.403Z,-0.32
2023-12-15T03:58:28.750Z,-0.32
2023-12-15T04:00:57.149Z,-0.31
2023-12-15T04:03:25.601Z,-0.30
2023-12-15T04:05:54.008Z,-0.30
2023-12-15T04:08:22.514Z,-0.28
2023-12-15T04:10:50.907Z,-0.27
2023-12-15T04:13:19.278Z,-0.25
2023-12-15T04:15:49.876Z,-0.23
2023-12-15T04:18:18.314Z,-0.22
2023-12-15T04:20:46.772Z,-0.20
2023-12-15T04:23:16.896Z,-0.19
2023-12-15T04:25:45.594Z,-0.16
2023-12-15T04:28:14.050Z,-0.14
2023-12-15T04:30:42.317Z,-0.13
2023-12-15T04:33:11.041Z,-0.12
2023-12-15T04:35:39.433Z,-0.11
2023-12-15T04:38:07.975Z,-0.11
2023-12-15T04:40:36.335Z,-0.09
2023-12-15T04:43:04.723Z,-0.09
2023-12-15T04:45:34.525Z,-0.08
2023-12-15T04:48:03.401Z,-0.07
2023-12-15T04:50:32.944Z,-0.06
2023-12-15T04:53:02.692Z,-0.04
2023-12-15T04:55:31.045Z,-0.04
2023-12-15T04:57:59.762Z,-0.03
2023-12-15T05:00:28.307Z,-0.01
2023-12-15T05:02:56.892Z,0.00
2023-12-15T05:05:25.373Z,0.02
2023-12-15T05:07:54.268Z,0.03
2023-12-15T05:10:22.790Z,0.05
2023-12-15T05:12:51.373Z,0.07
2023-12-15T05:15:20.937Z,0.07
2023-12-15T05:17:50.430Z,0.08
2023-12-15T05:20:20.622Z,0.07
2023-12-15T05:22:49.201Z,0.08
2023-12-15T05:25:17.648Z,0.10
2023-12-15T05:27:45.961Z,0.10
2023-12-15T05:30:15.383Z,0.12
2023-12-15T05:32:44.433Z,0.13
2023-12-15T05:35:12.922Z,0.15
2023-12-15T05:37:41.444Z,0.15
2023-12-15T05:40:13.047Z,0.17
2023-12-15T05:42:41.338Z,0.19
2023-12-15T05:45:11.597Z,0.20
2023-12-15T05:47:41.366Z,0.21
2023-12-15T05:50:13.522Z,0.22
2023-12-15T05:52:41.949Z,0.23
2023-12-15T05:55:10.529Z,0.25
2023-12-15T05:57:39.662Z,0.28
2023-12-15T06:00:10.737Z,0.29
2023-12-15T06:02:39.380Z,0.32
2023-12-15T06:05:08.711Z,0.33
2023-12-15T06:07:37.398Z,0.36
2023-12-15T06:10:08.134Z,0.38
2023-12-15T06:12:36.425Z,0.39
2023-12-15T06:15:12.443Z,0.41
2023-12-15T06:17:43.176Z,0.41
2023-12-15T06:20:14.495Z,0.42
2023-12-15T06:22:43.191Z,0.42
2023-12-15T06:25:14.564Z,0.44
2023-12-15T06:27:42.923Z,0.44
2023-12-15T06:30:14.096Z,0.45
2023-12-15T06:32:42.581Z,0.45
2023-12-15T06:35:11.068Z,0.45
2023-12-15T06:37:39.685Z,0.47
2023-12-15T06:40:10.096Z,0.47
2023-12-15T06:42:38.839Z,0.48
2023-12-15T06:45:09.898Z,0.48
2023-12-15T06:47:39.287Z,0.49
2023-12-15T06:50:10.158Z,0.48
2023-12-15T06:52:39.254Z,0.48
2023-12-15T06:55:08.706Z,0.47
2023-12-15T06:57:37.607Z,0.47
2023-12-15T07:00:08.712Z,0.47
2023-12-15T07:02:37.423Z,0.48
2023-12-15T07:05:08.168Z,0.50
2023-12-15T07:07:37.443Z,0.52
2023-12-15T07:10:08.303Z,0.55
2023-12-15T07:12:36.711Z,0.57
2023-12-15T07:15:06.972Z,0.59
2023-12-15T07:17:35.690Z,0.61
2023-12-15T07:20:06.284Z,0.62
2023-12-15T07:22:34.657Z,0.63
2023-12-15T07:25:03.238Z,0.64
2023-12-15T07:27:31.507Z,0.64
2023-12-15T07:29:59.921Z,0.65
2023-12-15T07:32:28.524Z,0.67
2023-12-15T07:34:58.321Z,0.66
2023-12-15T07:37:26.612Z,0.67
2023-12-15T07:39:56.414Z,0.68
2023-12-15T07:42:24.772Z,0.69
2023-12-15T07:44:53.208Z,0.71
2023-12-15T07:47:21.471Z,0.73
2023-12-15T07:49:49.864Z,0.73
2023-12-15T07:52:18.146Z,0.75
2023-12-15T07:54:46.946Z,0.75
2023-12-15T07:57:16.271Z,0.76
2023-12-15T07:59:44.787Z,0.78
2023-12-15T08:02:13.111Z,0.80
2023-12-15T08:04:42.046Z,0.84
2023-12-15T08:07:11.479Z,0.87
2023-12-15T08:09:40.146Z,0.89
2023-12-15T08:12:10.056Z,0.90
2023-12-15T08:14:38.495Z,0.89
2023-12-15T08:17:06.998Z,0.87
2023-12-15T08:19:35.579Z,0.86
2023-12-15T08:22:04.302Z,0.85
2023-12-15T08:24:32.966Z,0.82
2023-12-15T08:27:01.840Z,0.79
2023-12-15T08:29:30.273Z,0.77
2023-12-15T08:31:58.849Z,0.74
2023-12-15T08:34:28.552Z,0.72
2023-12-15T08:36:57.146Z,0.71
2023-12-15T08:39:25.526Z,0.70
2023-12-15T08:41:53.955Z,0.69
2023-12-15T08:44:29.266Z,0.68
2023-12-15T08:47:02.760Z,0.67
2023-12-15T08:49:31.375Z,0.64
2023-12-15T08:51:59.760Z,0.61
2023-12-15T08:54:28.801Z,0.56
2023-12-15T08:56:57.323Z,0.48
2023-12-15T08:59:25.810Z,0.43
2023-12-15T09:01:54.599Z,0.41
2023-12-15T09:04:23.491Z,0.43
2023-12-15T09:06:53.067Z,0.47
2023-12-15T09:09:22.460Z,0.49
2023-12-15T09:11:50.820Z,0.52
2023-12-15T09:14:22.039Z,0.55
2023-12-15T09:16:50.496Z,0.57
2023-12-15T09:19:19.145Z,0.60
2023-12-15T09:21:48.041Z,0.62
2023-12-15T09:24:18.468Z,0.66
2023-12-15T09:26:47.167Z,0.73
2023-12-15T09:29:16.289Z,0.79
2023-12-15T09:31:44.843Z,0.85
2023-12-15T09:34:14.289Z,0.92
2023-12-15T09:36:43.532Z,0.97
2023-12-15T09:39:12.971Z,1.02
2023-12-15T09:41:41.392Z,1.08
2023-12-15T09:44:09.733Z,1.13
2023-12-15T09:46:38.655Z,1.16
2023-12-15T09:49:07.132Z,1.19
2023-12-15T09:51:38.214Z,1.18
2023-12-15T09:54:06.932Z,1.17
2023-12-15T09:56:35.204Z,1.17
2023-12-15T09:59:04.266Z,1.17
2023-12-15T10:01:34.224Z,1.19
2023-12-15T10:04:03.108Z,1.20
2023-12-15T10:06:34.944Z,1.22
2023-12-15T10:09:03.997Z,1.25
2023-12-15T10:11:35.109Z,1.29
2023-12-15T10:14:05.261Z,1.32
2023-12-15T10:16:33.802Z,1.34
2023-12-15T10:19:04.653Z,1.37
2023-12-15T10:21:33.877Z,1.39
2023-12-15T10:24:19.054Z,1.40
2023-12-15T10:26:47.541Z,1.40
2023-12-15T10:29:16.027Z,1.38
2023-12-15T10:31:44.424Z,1.32
2023-12-15T10:34:12.775Z,1.28
2023-12-15T10:36:45.420Z,1.27
2023-12-15T10:39:14.338Z,1.26
2023-12-15T10:41:43.364Z,1.27
2023-12-15T10:44:13.033Z,1.27
2023-12-15T10:46:43.048Z,1.26
2023-12-15T10:49:13.861Z,1.25
2023-12-15T10:51:44.187Z,1.24
2023-12-15T10:54:12.458Z,1.22
2023-12-15T10:56:40.804Z,1.22
2023-12-15T10:59:10.067Z,1.21
2023-12-15T11:01:40.910Z,1.20
2023-12-15T11:04:20.195Z,1.20
2023-12-15T11:06:49.384Z,1.20
2023-12-15T11:09:36.192Z,1.22
2023-12-15T11:12:29.675Z,1.24
2023-12-15T11:15:03.801Z,1.28
2023-12-15T11:17:31.610Z,1.31
2023-12-15T11:20:06.810Z,1.34
2023-12-15T11:22:54.425Z,1.38
2023-12-15T11:25:31.183Z,1.43
2023-12-15T11:28:00.471Z,1.46
2023-12-15T11:30:36.878Z,1.49
2023-12-15T11:33:40.519Z,1.51
2023-12-15T11:36:10.134Z,1.52
2023-12-15T11:38:39.888Z,1.53
2023-12-15T11:41:11.341Z,1.56
2023-12-15T11:43:44.032Z,1.58
2023-12-15T11:46:12.621Z,1.61
2023-12-15T11:48:42.242Z,1.63
2023-12-15T11:51:11.041Z,1.67
2023-12-15T11:53:42.156Z,1.68
2023-12-15T11:56:12.012Z,1.71
2023-12-15T11:58:40.797Z,1.72
2023-12-15T12:01:09.417Z,1.74
2023-12-15T12:03:37.872Z,1.74
2023-12-15T12:06:09.235Z,1.76
2023-12-15T12:08:37.907Z,1.77
2023-12-15T12:11:09.310Z,1.77
2023-12-15T12:13:40.166Z,1.77
2023-12-15T12:16:08.859Z,1.77
2023-12-15T12:18:37.552Z,1.78
2023-12-15T12:21:08.314Z,1.78
2023-12-15T12:23:43.352Z,1.78
2023-12-15T12:26:15.668Z,1.79
2023-12-15T12:28:48.948Z,1.79
2023-12-15T12:31:17.318Z,1.79
2023-12-15T12:33:46.160Z,1.77
2023-12-15T12:36:15.521Z,1.75
2023-12-15T12:38:43.932Z,1.74
2023-12-15T12:41:13.101Z,1.75
2023-12-15T12:43:42.170Z,1.75
2023-12-15T12:46:12.143Z,1.74
2023-12-15T12:48:41.203Z,1.71
2023-12-15T12:51:09.835Z,1.69
2023-12-15T12:53:38.244Z,1.69
2023-12-15T12:56:08.217Z,1.70
2023-12-15T12:58:36.825Z,1.69
2023-12-15T13:01:05.859Z,1.69
2023-12-15T13:03:34.385Z,1.71
2023-12-15T13:06:03.057Z,1.71
2023-12-15T13:08:31.844Z,1.72
2023-12-15T13:11:00.614Z,1.74
2023-12-15T13:13:29.125Z,1.74
2023-12-15T13:15:57.550Z,1.75
2023-12-15T13:18:26.097Z,1.74
2023-12-15T13:20:54.631Z,1.75
2023-12-15T13:23:23.514Z,1.76
2023-12-15T13:25:52.371Z,1.75
2023-12-15T13:28:21.390Z,1.76
2023-12-15T13:30:50.574Z,1.76
2023-12-15T13:33:19.238Z,1.76
2023-12-15T13:35:48.521Z,1.75
2023-12-15T13:38:18.418Z,1.76
2023-12-15T13:40:47.024Z,1.75
2023-12-15T13:43:15.394Z,1.76
2023-12-15T13:45:50.604Z,1.76
2023-12-15T13:48:22.675Z,1.77
2023-12-15T13:50:51.287Z,1.78
2023-12-15T13:53:20.063Z,1.78
2023-12-15T13:55:48.620Z,1.79
2023-12-15T13:58:20.451Z,1.78
2023-12-15T14:00:49.372Z,1.78
2023-12-15T14:03:17.893Z,1.78
2023-12-15T14:05:46.307Z,1.78
2023-12-15T14:08:20.126Z,1.78
2023-12-15T14:10:49.083Z,1.79
2023-12-15T14:13:17.590Z,1.80
2023-12-15T14:15:47.364Z,1.81
2023-12-15T14:18:15.953Z,1.81
2023-12-15T14:20:44.484Z,1.82
2023-12-15T14:23:13.549Z,1.82
2023-12-15T14:25:43.606Z,1.81
2023-12-15T14:28:12.278Z,1.82
2023-12-15T14:30:41.654Z,1.82
2023-12-15T14:33:10.304Z,1.83
2023-12-15T14:35:38.968Z,1.84
2023-12-15T14:38:09.261Z,1.85
2023-12-15T14:40:37.699Z,1.86
2023-12-15T14:43:06.500Z,1.88
2023-12-15T14:45:34.868Z,1.88
2023-12-15T14:48:19.598Z,1.90
2023-12-15T14:50:50.442Z,1.91
2023-12-15T14:53:18.961Z,1.94
2023-12-15T14:55:47.606Z,1.95
2023-12-15T14:58:16.610Z,1.97
2023-12-15T15:00:45.174Z,1.98
2023-12-15T15:03:14.499Z,2.01
2023-12-15T15:05:44.711Z,2.07
2023-12-15T15:08:14.352Z,2.11
2023-12-15T15:10:42.874Z,2.15
2023-12-15T15:13:11.170Z,2.17
2023-12-15T15:15:39.500Z,2.18
2023-12-15T15:18:07.925Z,2.18
2023-12-15T15:20:36.351Z,2.16
2023-12-15T15:23:04.853Z,2.16
2023-12-15T15:25:33.168Z,2.16
2023-12-15T15:28:01.480Z,2.16
2023-12-15T15:30:30.159Z,2.16
2023-12-15T15:32:58.650Z,2.15
2023-12-15T15:35:28.846Z,2.15
2023-12-15T15:37:58.255Z,2.16
2023-12-15T15:40:26.547Z,2.16
2023-12-15T15:42:54.955Z,2.18
2023-12-15T15:45:23.800Z,2.25
2023-12-15T15:47:54.734Z,2.30
2023-12-15T15:50:23.085Z,2.29
2023-12-15T15:52:52.314Z,2.27
2023-12-15T15:55:20.891Z,2.26
2023-12-15T15:57:49.736Z,2.24
2023-12-15T16:00:20.862Z,2.23
2023-12-15T16:02:51.446Z,2.22
2023-12-15T16:05:21.114Z,2.22
2023-12-15T16:07:50.086Z,2.22
2023-12-15T16:10:18.524Z,2.22
2023-12-15T16:12:47.128Z,2.21
2023-12-15T16:15:17.199Z,2.19
2023-12-15T16:17:46.197Z,2.21
2023-12-15T16:20:14.763Z,2.19
2023-12-15T16:22:43.145Z,2.19
2023-12-15T16:25:11.568Z,2.19
2023-12-15T16:27:41.566Z,2.18
2023-12-15T16:30:14.205Z,2.18
2023-12-15T16:32:43.631Z,2.18
2023-12-15T16:35:12.176Z,2.17
2023-12-15T16:37:41.682Z,2.19
2023-12-15T16:40:12.131Z,2.20
2023-12-15T16:42:45.025Z,2.21
2023-12-15T16:45:14.444Z,2.21
2023-12-15T16:47:44.073Z,2.20
2023-12-15T16:50:12.956Z,2.21
2023-12-15T16:52:41.438Z,2.20
2023-12-15T16:55:10.469Z,2.20
2023-12-15T16:57:40.521Z,2.20
2023-12-15T17:00:12.296Z,2.20
2023-12-15T17:02:42.187Z,2.22
2023-12-15T17:05:10.936Z,2.22
2023-12-15T17:07:39.480Z,2.22
2023-12-15T17:10:09.219Z,2.21
2023-12-15T17:12:37.772Z,2.22
2023-12-15T17:15:08.941Z,2.21
2023-12-15T17:17:39.464Z,2.22
2023-12-15T17:20:11.466Z,2.22
2023-12-15T17:22:40.552Z,2.23
2023-12-15T17:25:11.697Z,2.23
2023-12-15T17:27:41.160Z,2.23
2023-12-15T17:30:12.032Z,2.23
2023-12-15T17:32:42.734Z,2.24
2023-12-15T17:35:11.714Z,2.24
2023-12-15T17:37:40.085Z,2.22
2023-12-15T17:40:10.679Z,2.19
2023-12-15T17:42:39.210Z,2.17
2023-12-15T17:45:09.820Z,2.15
2023-12-15T17:47:38.491Z,2.14
2023-12-15T17:50:09.008Z,2.13
2023-12-15T17:52:37.494Z,2.13
2023-12-15T17:55:07.177Z,2.13
2023-12-15T17:57:36.157Z,2.11
2023-12-15T18:00:07.488Z,2.10
2023-12-15T18:02:35.852Z,2.08
2023-12-15T18:05:05.108Z,2.06
2023-12-15T18:07:33.433Z,2.04
2023-12-15T18:10:02.017Z,2.03
2023-12-15T18:12:30.414Z,2.02
2023-12-15T18:14:58.917Z,2.02
2023-12-15T18:17:27.428Z,2.01
2023-12-15T18:19:55.984Z,2.00
2023-12-15T18:22:24.509Z,1.99
2023-12-15T18:24:52.970Z,2.00
2023-12-15T18:27:23.143Z,2.00
2023-12-15T18:29:52.261Z,2.00
2023-12-15T18:32:20.633Z,2.00
2023-12-15T18:34:49.086Z,2.00
2023-12-15T18:37:18.322Z,2.01
2023-12-15T18:39:47.598Z,2.02
2023-12-15T18:42:17.106Z,2.02
2023-12-15T18:44:45.850Z,2.03
2023-12-15T18:47:15.353Z,2.05
2023-12-15T18:49:43.969Z,2.05
2023-12-15T18:52:13.757Z,2.06
2023-12-15T18:54:43.691Z,2.07
2023-12-15T18:57:12.997Z,2.08
2023-12-15T18:59:41.829Z,2.08
2023-12-15T19:02:11.573Z,2.10
2023-12-15T19:04:41.437Z,2.11
2023-12-15T19:07:10.158Z,2.11
2023-12-15T19:09:39.190Z,2.12
2023-12-15T19:12:08.590Z,2.15
2023-12-15T19:14:38.833Z,2.15
2023-12-15T19:17:07.413Z,2.16
2023-12-15T19:19:35.899Z,2.17
2023-12-15T19:22:06.771Z,2.19
2023-12-15T19:24:35.223Z,2.21
2023-12-15T19:27:04.462Z,2.21
2023-12-15T19:29:32.849Z,2.23
2023-12-15T19:32:01.821Z,2.24
2023-12-15T19:34:30.385Z,2.24
2023-12-15T19:37:00.805Z,2.25
2023-12-15T19:39:29.113Z,2.26
2023-12-15T19:41:57.612Z,2.26
2023-12-15T19:44:28.413Z,2.27
2023-12-15T19:46:56.765Z,2.28
2023-12-15T19:49:28.732Z,2.29
2023-12-15T19:51:58.139Z,2.30
2023-12-15T19:54:26.434Z,2.32
2023-12-15T19:56:54.903Z,2.32
2023-12-15T19:59:25.212Z,2.33
2023-12-15T20:01:56.563Z,2.34
2023-12-15T20:04:25.114Z,2.35
2023-12-15T20:06:53.681Z,2.35
2023-12-15T20:09:22.131Z,2.35
2023-12-15T20:11:50.593Z,2.35
2023-12-15T20:14:18.940Z,2.36
2023-12-15T20:16:47.234Z,2.36
2023-12-15T20:19:15.825Z,2.37
2023-12-15T20:21:44.310Z,2.37
2023-12-15T20:24:13.843Z,2.38
2023-12-15T20:26:43.433Z,2.39
2023-12-15T20:29:12.097Z,2.40
2023-12-15T20:31:44.298Z,2.41
2023-12-15T20:34:13.220Z,2.41
2023-12-15T20:36:41.794Z,2.41
2023-12-15T20:39:15.535Z,2.41
2023-12-15T20:41:43.913Z,2.41
2023-12-15T20:44:14.834Z,2.40
2023-12-15T20:46:45.995Z,2.39
2023-12-15T20:49:14.633Z,2.38
2023-12-15T20:51:43.418Z,2.38
2023-12-15T20:54:13.303Z,2.37
2023-12-15T20:56:42.778Z,2.38
2023-12-15T20:59:11.645Z,2.37
2023-12-15T21:01:40.195Z,2.38
2023-12-15T21:04:08.758Z,2.39
2023-12-15T21:06:37.294Z,2.39
2023-12-15T21:09:06.087Z,2.39
2023-12-15T21:11:35.901Z,2.39
2023-12-15T21:14:04.660Z,2.39
2023-12-15T21:16:34.872Z,2.39
2023-12-15T21:19:03.356Z,2.39
2023-12-15T21:21:34.661Z,2.38
2023-12-15T21:24:03.874Z,2.39
2023-12-15T21:26:32.946Z,2.39
2023-12-15T21:29:01.281Z,2.39
2023-12-15T21:31:31.712Z,2.39
2023-12-15T21:34:00.536Z,2.39
2023-12-15T21:36:29.075Z,2.39
2023-12-15T21:38:57.486Z,2.38
2023-12-15T21:41:27.114Z,2.38
2023-12-15T21:43:55.911Z,2.38
2023-12-15T21:46:24.292Z,2.38
2023-12-15T21:48:55.656Z,2.37
2023-12-15T21:51:27.177Z,2.37
2023-12-15T21:53:55.590Z,2.37
2023-12-15T21:56:23.888Z,2.37
2023-12-15T21:58:54.399Z,2.36
2023-12-15T22:01:23.156Z,2.36
2023-12-15T22:03:52.886Z,2.36
2023-12-15T22:06:21.879Z,2.35
2023-12-15T22:08:50.540Z,2.36
2023-12-15T22:11:19.069Z,2.35
2023-12-15T22:13:47.392Z,2.34
2023-12-15T22:16:15.858Z,2.34
2023-12-15T22:18:44.427Z,2.35
2023-12-15T22:21:13.464Z,2.36
2023-12-15T22:23:41.920Z,2.37
2023-12-15T22:26:13.557Z,2.37
2023-12-15T22:28:42.744Z,2.38
2023-12-15T22:31:11.284Z,2.39
2023-12-15T22:33:40.548Z,2.40
2023-12-15T22:36:09.650Z,2.39
2023-12-15T22:38:39.424Z,2.38
2023-12-15T22:41:12.959Z,2.38
2023-12-15T22:43:42.345Z,2.38
2023-12-15T22:46:10.866Z,2.37
2023-12-15T22:48:42.386Z,2.37
2023-12-15T22:51:11.033Z,2.36
2023-12-15T22:53:39.591Z,2.36
2023-12-15T22:56:10.310Z,2.36
2023-12-15T22:58:38.941Z,2.35
2023-12-15T23:01:07.856Z,2.35
2023-12-15T23:03:37.892Z,2.34
2023-12-15T23:06:07.253Z,2.35
2023-12-15T23:08:35.844Z,2.35
2023-12-15T23:11:04.842Z,2.34
2023-12-15T23:13:34.301Z,2.34
2023-12-15T23:16:03.144Z,2.33
2023-12-15T23:18:31.898Z,2.33
2023-12-15T23:21:07.079Z,2.34
2023-12-15T23:23:40.877Z,2.34
2023-12-15T23:26:09.974Z,2.34
2023-12-15T23:28:38.636Z,2.35
2023-12-15T23:31:07.809Z,2.36
2023-12-15T23:33:36.481Z,2.37
2023-12-15T23:36:11.741Z,2.37
2023-12-15T23:38:41.333Z,2.37
2023-12-15T23:41:09.888Z,2.37
2023-12-15T23:43:38.288Z,2.37
2023-12-15T23:46:06.673Z,2.39
2023-12-15T23:48:35.283Z,2.40
2023-12-15T23:51:04.744Z,2.40
2023-12-15T23:53:33.202Z,2.40
2023-12-15T23:56:01.798Z,2.42
2023-12-15T23:58:31.668Z,2.42
